createdAt,value
2023-06-24T00:00:19.707Z,92.19
2023-06-24T00:01:19.735Z,92.19
2023-06-24T00:02:19.708Z,92.19
2023-06-24T00:03:19.873Z,92.09
2023-06-24T00:04:19.677Z,92.03
2023-06-24T00:05:19.641Z,92.24
2023-06-24T00:06:19.775Z,92.44
2023-06-24T00:07:19.664Z,92.44
2023-06-24T00:08:19.668Z,92.54
2023-06-24T00:09:19.587Z,92.54
2023-06-24T00:10:19.590Z,92.74
2023-06-24T00:11:19.558Z,92.64
2023-06-24T00:12:19.567Z,92.64
2023-06-24T00:13:19.566Z,92.64
2023-06-24T00:14:19.546Z,92.64
2023-06-24T00:15:19.577Z,92.64
2023-06-24T00:16:19.525Z,92.54
2023-06-24T00:17:21.493Z,92.68
2023-06-24T00:18:19.586Z,93.08
2023-06-24T00:19:19.473Z,93.39
2023-06-24T00:20:20.601Z,93.49
2023-06-24T00:21:19.481Z,93.29
2023-06-24T00:22:19.474Z,93.08
2023-06-24T00:23:19.429Z,93.19
2023-06-24T00:24:19.448Z,93.29
2023-06-24T00:25:19.409Z,93.19
2023-06-24T00:26:19.427Z,93.19
2023-06-24T00:27:19.401Z,93.08
2023-06-24T00:28:19.418Z,93.08
2023-06-24T00:29:19.373Z,92.99
2023-06-24T00:30:19.381Z,92.88
2023-06-24T00:31:19.401Z,93.08
2023-06-24T00:32:19.353Z,93.08
2023-06-24T00:33:19.345Z,93.19
2023-06-24T00:34:19.362Z,93.29
2023-06-24T00:35:19.320Z,93.19
2023-06-24T00:36:19.333Z,92.99
2023-06-24T00:37:20.000Z,92.99
2023-06-24T00:38:19.306Z,93.08
2023-06-24T00:39:19.251Z,93.08
2023-06-24T00:40:19.259Z,93.03
2023-06-24T00:41:20.188Z,92.93
2023-06-24T00:42:19.277Z,92.83
2023-06-24T00:43:20.194Z,92.83
2023-06-24T00:44:19.294Z,92.72
2023-06-24T00:45:19.231Z,92.72
2023-06-24T00:46:19.197Z,92.63
2023-06-24T00:47:19.197Z,92.63
2023-06-24T00:48:19.202Z,92.63
2023-06-24T00:49:19.142Z,92.63
2023-06-24T00:50:19.188Z,92.52
2023-06-24T00:51:19.127Z,92.42
2023-06-24T00:52:19.132Z,92.42
2023-06-24T00:53:19.112Z,92.42
2023-06-24T00:54:19.168Z,92.32
2023-06-24T00:55:19.088Z,92.42
2023-06-24T00:56:19.096Z,92.32
2023-06-24T00:57:19.101Z,92.22
2023-06-24T00:58:19.078Z,92.22
2023-06-24T00:59:19.088Z,92.12
2023-06-24T01:00:21.547Z,92.12
2023-06-24T01:01:19.073Z,92.02
2023-06-24T01:02:19.129Z,92.02
2023-06-24T01:03:19.177Z,92.12
2023-06-24T01:04:19.016Z,92.22
2023-06-24T01:05:18.968Z,92.22
2023-06-24T01:06:18.980Z,92.12
2023-06-24T01:07:19.015Z,92.26
2023-06-24T01:08:18.981Z,92.26
2023-06-24T01:09:18.919Z,92.16
2023-06-24T01:10:18.954Z,92.26
2023-06-24T01:11:18.912Z,92.36
2023-06-24T01:12:18.920Z,92.36
2023-06-24T01:13:18.895Z,92.36
2023-06-24T01:14:18.918Z,92.47
2023-06-24T01:15:18.889Z,92.36
2023-06-24T01:16:18.873Z,92.26
2023-06-24T01:17:18.901Z,92.16
2023-06-24T01:18:18.866Z,92.26
2023-06-24T01:19:18.802Z,92.16
2023-06-24T01:20:18.854Z,92.16
2023-06-24T01:21:18.786Z,92.06
2023-06-24T01:22:18.827Z,92.06
2023-06-24T01:23:18.782Z,92.06
2023-06-24T01:24:18.805Z,91.86
2023-06-24T01:25:18.757Z,91.75
2023-06-24T01:26:18.765Z,91.86
2023-06-24T01:27:18.726Z,91.96
2023-06-24T01:28:18.744Z,92.10
2023-06-24T01:29:18.692Z,92.31
2023-06-24T01:30:18.746Z,92.21
2023-06-24T01:31:18.699Z,92.31
2023-06-24T01:32:18.705Z,92.21
2023-06-24T01:33:18.720Z,92.21
2023-06-24T01:34:18.698Z,92.21
2023-06-24T01:35:18.648Z,92.10
2023-06-24T01:36:18.686Z,92.10
2023-06-24T01:37:18.634Z,92.10
2023-06-24T01:38:18.639Z,92.10
2023-06-24T01:39:18.613Z,92.21
2023-06-24T01:40:18.611Z,92.00
2023-06-24T01:41:18.587Z,92.14
2023-06-24T01:42:18.594Z,92.35
2023-06-24T01:43:18.552Z,92.45
2023-06-24T01:44:18.563Z,92.55
2023-06-24T01:45:18.548Z,92.35
2023-06-24T01:46:18.615Z,92.25
2023-06-24T01:47:18.511Z,92.25
2023-06-24T01:48:18.529Z,92.45
2023-06-24T01:49:18.502Z,92.65
2023-06-24T01:50:18.496Z,92.55
2023-06-24T01:51:18.527Z,92.65
2023-06-24T01:52:18.503Z,92.65
2023-06-24T01:53:18.440Z,92.55
2023-06-24T01:54:18.449Z,92.55
2023-06-24T01:55:18.445Z,92.45
2023-06-24T01:56:18.461Z,92.45
2023-06-24T01:57:18.436Z,92.45
2023-06-24T01:58:18.560Z,92.45
2023-06-24T01:59:18.441Z,92.45
2023-06-24T02:00:18.468Z,92.45
2023-06-24T02:01:18.526Z,92.45
2023-06-24T02:02:18.414Z,92.55
2023-06-24T02:03:18.751Z,92.55
2023-06-24T02:04:18.317Z,92.65
2023-06-24T02:05:18.348Z,92.76
2023-06-24T02:06:18.291Z,92.86
2023-06-24T02:07:18.408Z,92.86
2023-06-24T02:08:18.297Z,92.86
2023-06-24T02:09:18.306Z,92.90
2023-06-24T02:10:18.283Z,92.86
2023-06-24T02:11:18.283Z,92.80
2023-06-24T02:12:18.266Z,92.90
2023-06-24T02:13:18.273Z,92.90
2023-06-24T02:14:18.212Z,93.00
2023-06-24T02:15:18.261Z,92.90
2023-06-24T02:16:18.224Z,92.90
2023-06-24T02:17:19.175Z,92.90
2023-06-24T02:18:18.203Z,92.80
2023-06-24T02:19:18.247Z,92.70
2023-06-24T02:20:18.165Z,92.60
2023-06-24T02:21:18.179Z,92.70
2023-06-24T02:22:18.138Z,92.70
2023-06-24T02:23:18.186Z,92.70
2023-06-24T02:24:18.107Z,92.70
2023-06-24T02:25:18.132Z,92.60
2023-06-24T02:26:18.114Z,92.60
2023-06-24T02:27:18.108Z,92.49
2023-06-24T02:28:18.070Z,92.40
2023-06-24T02:29:18.088Z,92.49
2023-06-24T02:30:18.071Z,92.60
2023-06-24T02:31:18.109Z,92.60
2023-06-24T02:32:18.008Z,92.60
2023-06-24T02:33:18.064Z,92.70
2023-06-24T02:34:18.000Z,92.70
2023-06-24T02:35:18.047Z,92.60
2023-06-24T02:36:17.982Z,92.40
2023-06-24T02:37:18.010Z,92.29
2023-06-24T02:38:17.959Z,92.40
2023-06-24T02:39:17.976Z,92.29
2023-06-24T02:40:17.963Z,92.29
2023-06-24T02:41:17.965Z,92.40
2023-06-24T02:42:17.918Z,92.40
2023-06-24T02:43:17.928Z,92.29
2023-06-24T02:44:17.920Z,92.19
2023-06-24T02:45:17.921Z,92.40
2023-06-24T02:46:17.906Z,92.49
2023-06-24T02:47:17.963Z,92.60
2023-06-24T02:48:17.842Z,92.70
2023-06-24T02:49:18.009Z,92.70
2023-06-24T02:50:17.852Z,92.60
2023-06-24T02:51:17.874Z,92.74
2023-06-24T02:52:17.803Z,92.84
2023-06-24T02:53:17.821Z,92.94
2023-06-24T02:54:17.780Z,92.94
2023-06-24T02:55:17.819Z,93.00
2023-06-24T02:56:17.793Z,93.05
2023-06-24T02:57:17.786Z,92.90
2023-06-24T02:58:17.764Z,92.64
2023-06-24T02:59:17.760Z,92.44
2023-06-24T03:00:17.731Z,92.54
2023-06-24T03:01:17.785Z,92.54
2023-06-24T03:02:17.701Z,92.44
2023-06-24T03:03:17.826Z,92.44
2023-06-24T03:04:17.719Z,92.24
2023-06-24T03:05:17.711Z,92.24
2023-06-24T03:06:17.663Z,92.33
2023-06-24T03:07:17.733Z,92.13
2023-06-24T03:08:17.640Z,92.24
2023-06-24T03:09:17.657Z,92.13
2023-06-24T03:10:17.604Z,92.03
2023-06-24T03:11:17.686Z,92.18
2023-06-24T03:12:17.602Z,92.28
2023-06-24T03:13:17.659Z,92.38
2023-06-24T03:14:17.568Z,92.48
2023-06-24T03:15:17.581Z,92.58
2023-06-24T03:16:17.558Z,92.68
2023-06-24T03:17:17.633Z,92.99
2023-06-24T03:18:17.576Z,92.99
2023-06-24T03:19:17.554Z,92.99
2023-06-24T03:20:17.522Z,92.99
2023-06-24T03:21:17.515Z,92.99
2023-06-24T03:22:17.502Z,92.89
2023-06-24T03:23:19.483Z,92.89
2023-06-24T03:24:17.468Z,92.79
2023-06-24T03:25:17.482Z,92.54
2023-06-24T03:26:17.441Z,92.44
2023-06-24T03:27:17.456Z,92.33
2023-06-24T03:28:17.410Z,92.03
2023-06-24T03:29:17.428Z,91.83
2023-06-24T03:30:17.424Z,91.73
2023-06-24T03:31:17.459Z,91.52
2023-06-24T03:32:17.453Z,91.52
2023-06-24T03:33:17.396Z,91.63
2023-06-24T03:34:17.396Z,91.73
2023-06-24T03:35:17.691Z,91.73
2023-06-24T03:36:17.362Z,91.63
2023-06-24T03:37:17.355Z,91.52
2023-06-24T03:38:17.345Z,91.52
2023-06-24T03:39:17.346Z,91.42
2023-06-24T03:40:17.294Z,91.42
2023-06-24T03:41:17.311Z,91.42
2023-06-24T03:42:17.278Z,91.32
2023-06-24T03:43:17.292Z,91.08
2023-06-24T03:44:17.280Z,91.17
2023-06-24T03:45:17.288Z,91.08
2023-06-24T03:46:17.274Z,90.97
2023-06-24T03:47:17.227Z,90.97
2023-06-24T03:48:17.233Z,90.88
2023-06-24T03:49:17.235Z,90.62
2023-06-24T03:50:17.166Z,90.42
2023-06-24T03:51:18.144Z,90.32
2023-06-24T03:52:17.172Z,90.22
2023-06-24T03:53:17.160Z,90.12
2023-06-24T03:54:17.191Z,89.92
2023-06-24T03:55:17.149Z,89.67
2023-06-24T03:56:17.156Z,89.67
2023-06-24T03:57:17.116Z,89.57
2023-06-24T03:58:17.083Z,89.37
2023-06-24T03:59:17.131Z,89.47
2023-06-24T04:00:17.089Z,89.57
2023-06-24T04:01:17.157Z,89.47
2023-06-24T04:02:17.050Z,89.37
2023-06-24T04:03:17.145Z,89.17
2023-06-24T04:04:17.095Z,88.96
2023-06-24T04:05:17.034Z,88.62
2023-06-24T04:06:17.018Z,88.31
2023-06-24T04:07:17.088Z,88.11
2023-06-24T04:08:17.279Z,88.11
2023-06-24T04:09:16.990Z,87.91
2023-06-24T04:10:16.974Z,87.87
2023-06-24T04:11:16.980Z,87.66
2023-06-24T04:12:16.937Z,87.46
2023-06-24T04:13:16.945Z,87.05
2023-06-24T04:14:16.955Z,86.65
2023-06-24T04:15:16.953Z,86.61
2023-06-24T04:16:17.912Z,86.51
2023-06-24T04:17:16.919Z,86.65
2023-06-24T04:18:16.897Z,87.05
2023-06-24T04:19:17.324Z,86.85
2023-06-24T04:20:16.861Z,86.85
2023-06-24T04:21:16.865Z,86.76
2023-06-24T04:22:16.838Z,86.85
2023-06-24T04:23:16.830Z,86.96
2023-06-24T04:24:16.856Z,87.26
2023-06-24T04:25:16.823Z,87.36
2023-06-24T04:26:16.787Z,87.66
2023-06-24T04:27:16.810Z,87.56
2023-06-24T04:28:16.813Z,87.36
2023-06-24T04:29:16.800Z,87.77
2023-06-24T04:30:16.736Z,87.87
2023-06-24T04:31:16.777Z,88.07
2023-06-24T04:32:16.732Z,87.87
2023-06-24T04:33:16.739Z,87.87
2023-06-24T04:34:16.710Z,88.07
2023-06-24T04:35:16.754Z,88.07
2023-06-24T04:36:16.680Z,88.42
2023-06-24T04:37:16.733Z,88.92
2023-06-24T04:38:16.678Z,89.12
2023-06-24T04:39:16.916Z,88.92
2023-06-24T04:40:16.630Z,88.68
2023-06-24T04:41:16.685Z,88.82
2023-06-24T04:42:16.635Z,89.32
2023-06-24T04:43:16.645Z,89.28
2023-06-24T04:44:16.589Z,89.18
2023-06-24T04:45:16.612Z,89.08
2023-06-24T04:46:16.586Z,88.94
2023-06-24T04:47:17.301Z,88.53
2023-06-24T04:48:16.562Z,87.99
2023-06-24T04:49:16.604Z,87.44
2023-06-24T04:50:16.559Z,87.04
2023-06-24T04:51:16.536Z,86.63
2023-06-24T04:52:16.500Z,85.99
2023-06-24T04:53:16.513Z,85.14
2023-06-24T04:54:16.534Z,84.15
2023-06-24T04:55:16.510Z,82.15
2023-06-24T04:56:16.494Z,79.28
2023-06-24T04:57:16.493Z,76.56
2023-06-24T04:58:16.464Z,74.18
2023-06-24T04:59:16.482Z,72.13
2023-06-24T05:00:16.483Z,70.19
2023-06-24T05:01:16.460Z,70.43
2023-06-24T05:02:16.404Z,70.96
2023-06-24T05:03:16.437Z,72.87
2023-06-24T05:04:16.401Z,74.44
2023-06-24T05:05:16.506Z,76.03
2023-06-24T05:06:16.364Z,77.47
2023-06-24T05:07:16.580Z,78.11
2023-06-24T05:08:16.338Z,79.25
2023-06-24T05:09:16.382Z,80.20
2023-06-24T05:10:16.331Z,81.01
2023-06-24T05:11:16.336Z,81.75
2023-06-24T05:12:16.327Z,82.70
2023-06-24T05:13:16.320Z,83.54
2023-06-24T05:14:16.302Z,83.95
2023-06-24T05:15:16.362Z,84.39
2023-06-24T05:16:16.306Z,84.89
2023-06-24T05:17:16.324Z,85.50
2023-06-24T05:18:16.270Z,85.70
2023-06-24T05:19:16.256Z,85.80
2023-06-24T05:20:16.198Z,85.80
2023-06-24T05:21:16.224Z,85.80
2023-06-24T05:22:16.189Z,86.10
2023-06-24T05:23:16.204Z,86.51
2023-06-24T05:24:16.188Z,86.85
2023-06-24T05:25:16.186Z,87.15
2023-06-24T05:26:16.132Z,87.46
2023-06-24T05:27:16.158Z,87.86
2023-06-24T05:28:17.087Z,88.26
2023-06-24T05:29:16.146Z,88.26
2023-06-24T05:30:16.137Z,88.37
2023-06-24T05:31:16.123Z,88.26
2023-06-24T05:32:16.079Z,88.06
2023-06-24T05:33:16.116Z,88.37
2023-06-24T05:34:16.061Z,88.61
2023-06-24T05:35:16.071Z,89.12
2023-06-24T05:36:16.035Z,89.32
2023-06-24T05:37:16.025Z,89.37
2023-06-24T05:38:16.016Z,89.78
2023-06-24T05:39:16.033Z,89.98
2023-06-24T05:40:15.997Z,89.68
2023-06-24T05:41:16.006Z,89.23
2023-06-24T05:42:15.995Z,88.83
2023-06-24T05:43:15.997Z,88.43
2023-06-24T05:44:15.936Z,88.08
2023-06-24T05:45:15.976Z,87.78
2023-06-24T05:46:15.970Z,87.54
2023-06-24T05:47:15.933Z,87.09
2023-06-24T05:48:15.937Z,86.49
2023-06-24T05:49:15.927Z,86.38
2023-06-24T05:50:15.867Z,86.08
2023-06-24T05:51:15.899Z,85.84
2023-06-24T05:52:15.847Z,85.64
2023-06-24T05:53:15.873Z,85.50
2023-06-24T05:54:15.867Z,85.30
2023-06-24T05:55:15.880Z,85.10
2023-06-24T05:56:15.834Z,85.10
2023-06-24T05:57:15.827Z,84.89
2023-06-24T05:58:15.788Z,84.69
2023-06-24T05:59:15.820Z,84.49
2023-06-24T06:00:15.813Z,84.53
2023-06-24T06:01:15.786Z,84.83
2023-06-24T06:02:15.792Z,85.24
2023-06-24T06:03:15.840Z,85.44
2023-06-24T06:04:15.772Z,85.44
2023-06-24T06:05:17.720Z,85.44
2023-06-24T06:06:15.711Z,86.55
2023-06-24T06:07:15.769Z,86.65
2023-06-24T06:08:15.663Z,86.85
2023-06-24T06:09:15.684Z,87.55
2023-06-24T06:10:15.664Z,87.55
2023-06-24T06:11:15.653Z,87.55
2023-06-24T06:12:15.657Z,87.15
2023-06-24T06:13:15.668Z,86.85
2023-06-24T06:14:15.621Z,86.71
2023-06-24T06:15:15.658Z,86.71
2023-06-24T06:16:15.697Z,86.91
2023-06-24T06:17:15.670Z,86.61
2023-06-24T06:18:15.588Z,86.26
2023-06-24T06:19:15.571Z,86.06
2023-06-24T06:20:15.571Z,85.42
2023-06-24T06:21:15.586Z,84.61
2023-06-24T06:22:15.592Z,85.11
2023-06-24T06:23:15.535Z,85.31
2023-06-24T06:24:15.545Z,85.22
2023-06-24T06:25:15.547Z,85.11
2023-06-24T06:26:15.522Z,85.11
2023-06-24T06:27:15.479Z,85.11
2023-06-24T06:28:15.479Z,84.77
2023-06-24T06:29:15.467Z,85.08
2023-06-24T06:30:15.515Z,84.37
2023-06-24T06:31:15.525Z,84.27
2023-06-24T06:32:15.439Z,83.93
2023-06-24T06:33:15.482Z,83.73
2023-06-24T06:34:15.480Z,83.33
2023-06-24T06:35:15.445Z,83.33
2023-06-24T06:36:15.463Z,83.33
2023-06-24T06:37:15.368Z,83.83
2023-06-24T06:38:15.417Z,84.03
2023-06-24T06:39:15.359Z,83.93
2023-06-24T06:40:15.371Z,83.33
2023-06-24T06:41:15.341Z,83.43
2023-06-24T06:42:15.367Z,83.23
2023-06-24T06:43:15.342Z,83.73
2023-06-24T06:44:15.302Z,83.79
2023-06-24T06:45:16.241Z,83.39
2023-06-24T06:46:15.347Z,83.09
2023-06-24T06:47:15.267Z,83.99
2023-06-24T06:48:15.262Z,83.79
2023-06-24T06:49:15.232Z,82.75
2023-06-24T06:50:15.314Z,83.04
2023-06-24T06:51:15.242Z,82.75
2023-06-24T06:52:18.056Z,82.34
2023-06-24T06:53:15.223Z,82.75
2023-06-24T06:54:15.216Z,83.35
2023-06-24T06:55:15.156Z,83.75
2023-06-24T06:56:15.270Z,83.85
2023-06-24T06:57:15.168Z,83.04
2023-06-24T06:58:15.196Z,83.45
2023-06-24T06:59:15.185Z,82.75
2023-06-24T07:00:15.273Z,83.18
2023-06-24T07:01:15.246Z,83.25
2023-06-24T07:02:15.187Z,83.04
2023-06-24T07:03:15.165Z,82.14
2023-06-24T07:04:15.135Z,81.64
2023-06-24T07:05:15.067Z,82.24
2023-06-24T07:06:15.099Z,82.60
2023-06-24T07:07:15.060Z,82.20
2023-06-24T07:08:15.107Z,81.80
2023-06-24T07:09:15.051Z,81.56
2023-06-24T07:10:15.024Z,81.06
2023-06-24T07:11:15.048Z,81.06
2023-06-24T07:12:15.036Z,80.66
2023-06-24T07:13:14.945Z,80.06
2023-06-24T07:14:15.005Z,80.26
2023-06-24T07:15:14.962Z,80.72
2023-06-24T07:16:14.964Z,80.52
2023-06-24T07:17:14.944Z,79.72
2023-06-24T07:18:14.974Z,79.12
2023-06-24T07:19:14.934Z,79.12
2023-06-24T07:20:14.962Z,79.02
2023-06-24T07:21:14.877Z,79.32
2023-06-24T07:22:14.923Z,78.78
2023-06-24T07:23:14.898Z,78.61
2023-06-24T07:24:15.568Z,78.28
2023-06-24T07:25:14.861Z,78.88
2023-06-24T07:26:16.823Z,79.38
2023-06-24T07:27:14.844Z,79.98
2023-06-24T07:28:14.834Z,79.78
2023-06-24T07:29:14.806Z,79.58
2023-06-24T07:30:14.787Z,79.18
2023-06-24T07:31:14.844Z,79.48
2023-06-24T07:32:14.810Z,79.28
2023-06-24T07:33:14.806Z,78.44
2023-06-24T07:34:14.775Z,77.74
2023-06-24T07:35:14.764Z,77.74
2023-06-24T07:36:14.727Z,77.94
2023-06-24T07:37:23.170Z,77.44
2023-06-24T07:38:15.734Z,77.10
2023-06-24T07:39:14.693Z,77.80
2023-06-24T07:40:14.724Z,76.50
2023-06-24T07:41:14.727Z,75.70
2023-06-24T07:42:15.450Z,74.70
2023-06-24T07:43:14.652Z,73.70
2023-06-24T07:44:14.681Z,74.20
2023-06-24T07:45:14.625Z,75.40
2023-06-24T07:46:14.711Z,75.70
2023-06-24T07:47:16.598Z,75.70
2023-06-24T07:48:14.627Z,75.00
2023-06-24T07:49:14.589Z,75.70
2023-06-24T07:50:14.623Z,75.10
2023-06-24T07:51:14.591Z,75.70
2023-06-24T07:52:14.605Z,75.80
2023-06-24T07:53:14.536Z,76.00
2023-06-24T07:54:14.600Z,75.20
2023-06-24T07:55:14.533Z,74.96
2023-06-24T07:56:14.539Z,74.26
2023-06-24T07:57:14.513Z,73.96
2023-06-24T07:58:14.512Z,73.66
2023-06-24T07:59:14.485Z,73.06
2023-06-24T08:00:14.543Z,73.56
2023-06-24T08:01:14.474Z,74.43
2023-06-24T08:02:14.462Z,73.83
2023-06-24T08:03:14.604Z,74.03
2023-06-24T08:04:14.525Z,73.83
2023-06-24T08:05:16.375Z,72.19
2023-06-24T08:06:14.435Z,73.39
2023-06-24T08:07:14.429Z,73.69
2023-06-24T08:08:14.402Z,72.66
2023-06-24T08:09:14.410Z,72.76
2023-06-24T08:10:14.373Z,72.86
2023-06-24T08:11:14.360Z,71.52
2023-06-24T08:12:14.339Z,71.22
2023-06-24T08:13:14.330Z,71.22
2023-06-24T08:14:14.350Z,70.62
2023-06-24T08:15:14.277Z,70.62
2023-06-24T08:16:14.297Z,70.62
2023-06-24T08:17:14.285Z,69.62
2023-06-24T08:18:14.282Z,68.82
2023-06-24T08:19:14.248Z,68.93
2023-06-24T08:20:14.248Z,69.23
2023-06-24T08:21:14.225Z,69.62
2023-06-24T08:22:14.255Z,70.23
2023-06-24T08:23:14.213Z,68.52
2023-06-24T08:24:14.224Z,69.23
2023-06-24T08:25:14.182Z,69.73
2023-06-24T08:26:17.530Z,69.02
2023-06-24T08:27:14.151Z,68.82
2023-06-24T08:28:14.157Z,69.43
2023-06-24T08:29:14.126Z,69.32
2023-06-24T08:30:14.174Z,69.39
2023-06-24T08:31:14.160Z,68.33
2023-06-24T08:32:14.130Z,69.43
2023-06-24T08:33:14.116Z,70.09
2023-06-24T08:34:14.104Z,70.89
2023-06-24T08:35:14.108Z,70.69
2023-06-24T08:36:14.111Z,70.46
2023-06-24T08:37:14.071Z,69.76
2023-06-24T08:38:14.077Z,69.26
2023-06-24T08:39:14.041Z,70.65
2023-06-24T08:40:14.061Z,69.26
2023-06-24T08:41:14.956Z,69.56
2023-06-24T08:42:14.059Z,69.96
2023-06-24T08:43:13.984Z,69.62
2023-06-24T08:44:14.004Z,69.92
2023-06-24T08:45:13.990Z,68.63
2023-06-24T08:46:13.960Z,69.23
2023-06-24T08:47:14.006Z,69.92
2023-06-24T08:48:14.126Z,69.53
2023-06-24T08:49:14.084Z,68.43
2023-06-24T08:50:13.938Z,69.23
2023-06-24T08:51:13.885Z,66.93
2023-06-24T08:52:13.923Z,67.33
2023-06-24T08:53:13.874Z,67.33
2023-06-24T08:54:13.885Z,67.63
2023-06-24T08:55:13.834Z,67.53
2023-06-24T08:56:13.868Z,66.43
2023-06-24T08:57:13.828Z,66.27
2023-06-24T08:58:13.850Z,66.96
2023-06-24T08:59:13.798Z,67.66
2023-06-24T09:00:13.882Z,67.16
2023-06-24T09:01:13.789Z,67.16
2023-06-24T09:02:14.073Z,67.13
2023-06-24T09:03:13.850Z,67.73
2023-06-24T09:04:13.782Z,66.93
2023-06-24T09:05:13.765Z,66.63
2023-06-24T09:06:13.785Z,67.23
2023-06-24T09:07:13.752Z,67.30
2023-06-24T09:08:13.735Z,68.49
2023-06-24T09:09:13.699Z,68.60
2023-06-24T09:10:13.720Z,67.90
2023-06-24T09:11:13.767Z,66.80
2023-06-24T09:12:15.796Z,68.10
2023-06-24T09:13:13.654Z,68.00
2023-06-24T09:14:13.676Z,67.77
2023-06-24T09:15:13.659Z,67.66
2023-06-24T09:16:13.645Z,67.17
2023-06-24T09:17:13.620Z,67.03
2023-06-24T09:18:13.627Z,66.83
2023-06-24T09:19:13.626Z,67.13
2023-06-24T09:20:13.602Z,66.50
2023-06-24T09:21:13.624Z,66.01
2023-06-24T09:22:13.612Z,65.61
2023-06-24T09:23:13.537Z,65.21
2023-06-24T09:24:13.633Z,64.61
2023-06-24T09:25:13.537Z,64.69
2023-06-24T09:26:13.532Z,64.39
2023-06-24T09:27:13.524Z,64.69
2023-06-24T09:28:13.544Z,62.29
2023-06-24T09:29:13.476Z,63.49
2023-06-24T09:30:13.472Z,62.40
2023-06-24T09:32:13.587Z,63.09
2023-06-24T09:33:13.538Z,62.29
2023-06-24T09:34:13.471Z,62.10
2023-06-24T09:35:13.429Z,61.20
2023-06-24T09:36:13.441Z,61.33
2023-06-24T09:37:13.384Z,62.42
2023-06-24T09:38:13.402Z,62.13
2023-06-24T09:39:28.891Z,62.23
2023-06-24T09:40:14.401Z,62.62
2023-06-24T09:41:14.728Z,63.39
2023-06-24T09:42:15.361Z,63.49
2023-06-24T09:43:13.332Z,63.98
2023-06-24T09:44:13.415Z,62.69
2023-06-24T09:45:13.343Z,61.96
2023-06-24T09:46:13.405Z,61.47
2023-06-24T09:47:13.280Z,58.48
2023-06-24T09:48:13.314Z,58.22
2023-06-24T09:49:13.306Z,58.22
2023-06-24T09:50:13.268Z,58.61
2023-06-24T09:51:13.235Z,59.41
2023-06-24T09:52:13.282Z,59.21
2023-06-24T09:53:13.222Z,60.21
2023-06-24T09:54:13.235Z,59.98
2023-06-24T09:55:13.201Z,59.48
2023-06-24T09:56:13.273Z,59.88
2023-06-24T09:57:13.324Z,57.29
2023-06-24T09:58:13.203Z,56.59
2023-06-24T09:59:13.151Z,59.48
2023-06-24T10:00:13.191Z,58.65
2023-06-24T10:01:13.201Z,57.86
2023-06-24T10:02:13.193Z,57.96
2023-06-24T10:03:13.286Z,58.16
2023-06-24T10:04:13.874Z,57.56
2023-06-24T10:05:13.113Z,58.16
2023-06-24T10:06:13.124Z,58.26
2023-06-24T10:07:15.097Z,57.56
2023-06-24T10:08:13.072Z,56.54
2023-06-24T10:09:13.959Z,57.34
2023-06-24T10:10:13.108Z,57.24
2023-06-24T10:11:13.047Z,57.24
2023-06-24T10:12:13.051Z,57.64
2023-06-24T10:13:13.018Z,57.26
2023-06-24T10:14:13.063Z,57.06
2023-06-24T10:15:12.978Z,56.77
2023-06-24T10:16:12.984Z,56.37
2023-06-24T10:17:14.951Z,56.77
2023-06-24T10:18:16.622Z,57.17
2023-06-24T10:19:12.932Z,57.26
2023-06-24T10:20:12.949Z,57.83
2023-06-24T10:21:12.962Z,56.24
2023-06-24T10:22:13.952Z,56.34
2023-06-24T10:23:12.924Z,56.74
2023-06-24T10:24:14.020Z,57.04
2023-06-24T10:25:12.886Z,56.44
2023-06-24T10:26:12.897Z,57.24
2023-06-24T10:27:12.845Z,57.24
2023-06-24T10:28:12.876Z,57.64
2023-06-24T10:29:12.851Z,56.64
2023-06-24T10:30:12.866Z,56.14
2023-06-24T10:31:12.937Z,57.04
2023-06-24T10:32:12.842Z,56.24
2023-06-24T10:33:12.809Z,56.14
2023-06-24T10:34:12.796Z,56.24
2023-06-24T10:35:12.798Z,56.34
2023-06-24T10:36:12.783Z,55.85
2023-06-24T10:37:12.770Z,56.34
2023-06-24T10:38:12.762Z,56.34
2023-06-24T10:39:12.744Z,57.34
2023-06-24T10:40:12.836Z,57.53
2023-06-24T10:41:12.733Z,56.64
2023-06-24T10:42:12.742Z,57.34
2023-06-24T10:43:14.710Z,56.64
2023-06-24T10:44:13.271Z,56.64
2023-06-24T10:45:13.187Z,57.24
2023-06-24T10:46:12.692Z,56.44
2023-06-24T10:47:12.674Z,56.84
2023-06-24T10:48:14.585Z,56.64
2023-06-24T10:49:12.653Z,57.14
2023-06-24T10:50:12.609Z,56.24
2023-06-24T10:51:12.615Z,56.34
2023-06-24T10:52:12.580Z,57.04
2023-06-24T10:53:12.672Z,57.53
2023-06-24T10:54:12.602Z,57.83
2023-06-24T10:55:12.580Z,57.41
2023-06-24T10:56:12.562Z,57.70
2023-06-24T10:57:12.555Z,57.70
2023-06-24T10:58:12.933Z,56.41
2023-06-24T10:59:12.553Z,56.71
2023-06-24T11:00:12.503Z,57.90
2023-06-24T11:01:12.547Z,57.11
2023-06-24T11:02:12.518Z,57.51
2023-06-24T11:03:12.624Z,57.81
2023-06-24T11:04:12.868Z,57.51
2023-06-24T11:05:12.492Z,57.70
2023-06-24T11:06:12.429Z,57.01
2023-06-24T11:07:12.730Z,57.68
2023-06-24T11:08:14.401Z,57.58
2023-06-24T11:09:12.431Z,57.06
2023-06-24T11:10:13.729Z,56.85
2023-06-24T11:11:12.393Z,57.06
2023-06-24T11:12:12.374Z,55.87
2023-06-24T11:13:12.445Z,56.56
2023-06-24T11:14:12.367Z,57.25
2023-06-24T11:15:12.379Z,58.54
2023-06-24T11:16:12.364Z,58.72
2023-06-24T11:17:12.351Z,57.53
2023-06-24T11:18:12.454Z,57.23
2023-06-24T11:19:12.348Z,56.53
2023-06-24T11:20:12.355Z,56.73
2023-06-24T11:21:12.307Z,56.73
2023-06-24T11:22:12.332Z,56.53
2023-06-24T11:23:12.643Z,56.13
2023-06-24T11:24:12.299Z,56.34
2023-06-24T11:25:12.289Z,57.03
2023-06-24T11:26:12.229Z,56.51
2023-06-24T11:27:12.226Z,57.32
2023-06-24T11:28:12.214Z,55.74
2023-06-24T11:29:12.220Z,56.95
2023-06-24T11:30:12.173Z,57.95
2023-06-24T11:31:12.232Z,57.45
2023-06-24T11:32:12.158Z,57.13
2023-06-24T11:33:12.183Z,56.40
2023-06-24T11:34:12.129Z,56.51
2023-06-24T11:35:12.131Z,54.92
2023-06-24T11:36:12.107Z,55.91
2023-06-24T11:37:12.125Z,54.94
2023-06-24T11:38:12.110Z,55.15
2023-06-24T11:39:14.361Z,55.54
2023-06-24T11:40:12.100Z,55.36
2023-06-24T11:41:12.115Z,55.24
2023-06-24T11:42:12.083Z,55.64
2023-06-24T11:43:12.054Z,54.92
2023-06-24T11:44:12.035Z,54.72
2023-06-24T11:45:15.021Z,55.24
2023-06-24T11:46:11.989Z,55.66
2023-06-24T11:47:12.041Z,56.26
2023-06-24T11:48:12.012Z,56.38
2023-06-24T11:49:12.009Z,56.49
2023-06-24T11:50:12.013Z,57.11
2023-06-24T11:51:14.384Z,57.11
2023-06-24T11:52:11.992Z,56.91
2023-06-24T11:53:11.970Z,57.11
2023-06-24T11:54:11.907Z,56.98
2023-06-24T11:55:11.969Z,56.95
2023-06-24T11:56:11.961Z,57.28
2023-06-24T11:57:13.912Z,57.38
2023-06-24T11:58:11.896Z,56.78
2023-06-24T11:59:11.883Z,56.56
2023-06-24T12:00:11.844Z,56.23
2023-06-24T12:01:11.904Z,55.94
2023-06-24T12:02:11.832Z,56.13
2023-06-24T12:03:12.475Z,56.43
2023-06-24T12:04:11.972Z,56.34
2023-06-24T12:05:11.852Z,55.83
2023-06-24T12:06:11.788Z,56.04
2023-06-24T12:07:11.815Z,56.04
2023-06-24T12:08:11.835Z,55.66
2023-06-24T12:09:12.740Z,55.83
2023-06-24T12:10:11.791Z,55.64
2023-06-24T12:11:11.775Z,55.15
2023-06-24T12:12:11.790Z,55.24
2023-06-24T12:13:11.731Z,53.98
2023-06-24T12:14:11.723Z,54.68
2023-06-24T12:15:11.732Z,55.47
2023-06-24T12:16:11.679Z,55.66
2023-06-24T12:17:12.694Z,55.15
2023-06-24T12:18:11.673Z,54.42
2023-06-24T12:19:11.676Z,53.73
2023-06-24T12:20:11.640Z,54.13
2023-06-24T12:21:11.647Z,54.13
2023-06-24T12:22:11.655Z,53.83
2023-06-24T12:23:11.651Z,54.15
2023-06-24T12:24:12.314Z,52.86
2023-06-24T12:25:11.612Z,54.17
2023-06-24T12:26:11.583Z,54.57
2023-06-24T12:27:11.573Z,54.57
2023-06-24T12:28:11.598Z,54.64
2023-06-24T12:29:11.565Z,54.52
2023-06-24T12:30:11.609Z,54.22
2023-06-24T12:31:11.583Z,54.49
2023-06-24T12:32:11.556Z,54.49
2023-06-24T12:33:11.967Z,53.97
2023-06-24T12:34:11.500Z,53.88
2023-06-24T12:35:11.614Z,53.45
2023-06-24T12:36:11.474Z,52.49
2023-06-24T12:37:11.513Z,52.88
2023-06-24T12:38:11.494Z,51.87
2023-06-24T12:39:15.202Z,51.97
2023-06-24T12:40:12.568Z,52.17
2023-06-24T12:41:11.446Z,52.66
2023-06-24T12:42:11.447Z,51.65
2023-06-24T12:43:11.465Z,50.85
2023-06-24T12:44:11.422Z,51.25
2023-06-24T12:45:12.151Z,51.65
2023-06-24T12:46:11.389Z,51.94
2023-06-24T12:47:11.363Z,51.72
2023-06-24T12:48:11.339Z,51.13
2023-06-24T12:49:11.369Z,51.42
2023-06-24T12:50:11.345Z,51.23
2023-06-24T12:51:11.359Z,51.62
2023-06-24T12:52:11.357Z,50.93
2023-06-24T12:53:11.305Z,51.42